sensor_id;sensor_type;location;lat;lon;timestamp;temperature;humidity
9951;DHT22;24074;49.254;6.702;2024-02-26T00:01:23;6.90;99.90
9951;DHT22;24074;49.254;6.702;2024-02-26T00:03:49;6.90;99.90
9951;DHT22;24074;49.254;6.702;2024-02-26T00:06:15;6.80;99.90
9951;DHT22;24074;49.254;6.702;2024-02-26T00:08:41;6.80;99.90
9951;DHT22;24074;49.254;6.702;2024-02-26T00:11:06;6.70;99.90
9951;DHT22;24074;49.254;6.702;2024-02-26T00:13:32;6.70;99.90
9951;DHT22;24074;49.254;6.702;2024-02-26T00:15:57;6.60;99.90
9951;DHT22;24074;49.254;6.702;2024-02-26T00:18:23;6.60;99.90
9951;DHT22;24074;49.254;6.702;2024-02-26T00:20:48;6.50;99.90
9951;DHT22;24074;49.254;6.702;2024-02-26T00:23:17;6.50;99.90
9951;DHT22;24074;49.254;6.702;2024-02-26T00:25:42;6.50;99.90
9951;DHT22;24074;49.254;6.702;2024-02-26T00:28:09;6.50;99.90
9951;DHT22;24074;49.254;6.702;2024-02-26T00:30:35;6.40;99.90
9951;DHT22;24074;49.254;6.702;2024-02-26T00:33:01;6.40;99.90
9951;DHT22;24074;49.254;6.702;2024-02-26T00:35:26;6.30;99.90
9951;DHT22;24074;49.254;6.702;2024-02-26T00:37:52;6.20;99.90
9951;DHT22;24074;49.254;6.702;2024-02-26T00:40:18;6.20;99.90
9951;DHT22;24074;49.254;6.702;2024-02-26T00:42:44;6.30;99.90
9951;DHT22;24074;49.254;6.702;2024-02-26T00:45:12;6.20;99.90
9951;DHT22;24074;49.254;6.702;2024-02-26T00:47:38;6.20;99.90
9951;DHT22;24074;49.254;6.702;2024-02-26T00:50:07;6.20;99.90
9951;DHT22;24074;49.254;6.702;2024-02-26T00:52:34;6.20;99.90
9951;DHT22;24074;49.254;6.702;2024-02-26T00:54:59;6.20;99.90
9951;DHT22;24074;49.254;6.702;2024-02-26T00:57:25;6.20;99.90
9951;DHT22;24074;49.254;6.702;2024-02-26T00:59:51;6.20;99.90
9951;DHT22;24074;49.254;6.702;2024-02-26T01:02:16;6.20;99.90
9951;DHT22;24074;49.254;6.702;2024-02-26T01:04:42;6.20;99.90
9951;DHT22;24074;49.254;6.702;2024-02-26T01:07:08;6.20;99.90
9951;DHT22;24074;49.254;6.702;2024-02-26T01:09:34;6.20;99.90
9951;DHT22;24074;49.254;6.702;2024-02-26T01:11:59;6.20;99.90
9951;DHT22;24074;49.254;6.702;2024-02-26T01:14:25;6.10;99.90
9951;DHT22;24074;49.254;6.702;2024-02-26T01:16:54;6.10;99.90
9951;DHT22;24074;49.254;6.702;2024-02-26T01:19:19;6.10;99.90
9951;DHT22;24074;49.254;6.702;2024-02-26T01:21:45;6.10;99.90
9951;DHT22;24074;49.254;6.702;2024-02-26T01:24:10;6.10;99.90
9951;DHT22;24074;49.254;6.702;2024-02-26T01:26:36;6.00;99.90
9951;DHT22;24074;49.254;6.702;2024-02-26T01:29:01;6.00;99.90
9951;DHT22;24074;49.254;6.702;2024-02-26T01:31:27;6.00;99.90
9951;DHT22;24074;49.254;6.702;2024-02-26T01:33:53;6.00;99.90
9951;DHT22;24074;49.254;6.702;2024-02-26T01:36:18;6.00;99.90
9951;DHT22;24074;49.254;6.702;2024-02-26T01:38:44;5.90;99.90
9951;DHT22;24074;49.254;6.702;2024-02-26T01:41:10;6.00;99.90
9951;DHT22;24074;49.254;6.702;2024-02-26T01:43:35;6.00;99.90
9951;DHT22;24074;49.254;6.702;2024-02-26T01:46:01;6.00;99.90
9951;DHT22;24074;49.254;6.702;2024-02-26T01:48:26;6.00;99.90
9951;DHT22;24074;49.254;6.702;2024-02-26T01:50:52;6.00;99.90
9951;DHT22;24074;49.254;6.702;2024-02-26T01:53:19;6.00;99.90
9951;DHT22;24074;49.254;6.702;2024-02-26T01:55:45;6.00;99.90
9951;DHT22;24074;49.254;6.702;2024-02-26T01:58:11;6.00;99.90
9951;DHT22;24074;49.254;6.702;2024-02-26T02:00:37;6.00;99.90
9951;DHT22;24074;49.254;6.702;2024-02-26T02:03:03;6.00;99.90
9951;DHT22;24074;49.254;6.702;2024-02-26T02:05:30;6.00;99.90
9951;DHT22;24074;49.254;6.702;2024-02-26T02:07:56;6.00;99.90
9951;DHT22;24074;49.254;6.702;2024-02-26T02:10:22;6.00;99.90
9951;DHT22;24074;49.254;6.702;2024-02-26T02:12:50;6.00;99.90
9951;DHT22;24074;49.254;6.702;2024-02-26T02:15:16;6.00;99.90
9951;DHT22;24074;49.254;6.702;2024-02-26T02:17:41;6.00;99.90
9951;DHT22;24074;49.254;6.702;2024-02-26T02:20:15;6.00;99.90
9951;DHT22;24074;49.254;6.702;2024-02-26T02:22:42;6.10;99.90
9951;DHT22;24074;49.254;6.702;2024-02-26T02:25:07;6.00;99.90
9951;DHT22;24074;49.254;6.702;2024-02-26T02:27:33;6.00;99.90
9951;DHT22;24074;49.254;6.702;2024-02-26T02:29:59;6.00;99.90
9951;DHT22;24074;49.254;6.702;2024-02-26T02:32:29;6.00;99.90
9951;DHT22;24074;49.254;6.702;2024-02-26T02:34:56;6.10;99.90
9951;DHT22;24074;49.254;6.702;2024-02-26T02:37:22;6.00;99.90
9951;DHT22;24074;49.254;6.702;2024-02-26T02:39:47;6.10;99.90
9951;DHT22;24074;49.254;6.702;2024-02-26T02:42:13;6.00;99.90
9951;DHT22;24074;49.254;6.702;2024-02-26T02:44:38;6.00;99.90
9951;DHT22;24074;49.254;6.702;2024-02-26T02:47:04;6.00;99.90
9951;DHT22;24074;49.254;6.702;2024-02-26T02:49:29;6.10;99.90
9951;DHT22;24074;49.254;6.702;2024-02-26T02:51:55;6.10;99.90
9951;DHT22;24074;49.254;6.702;2024-02-26T02:54:22;6.10;99.90
9951;DHT22;24074;49.254;6.702;2024-02-26T02:56:48;6.10;99.90
9951;DHT22;24074;49.254;6.702;2024-02-26T02:59:14;6.10;99.90
9951;DHT22;24074;49.254;6.702;2024-02-26T03:01:39;6.00;99.90
9951;DHT22;24074;49.254;6.702;2024-02-26T03:04:05;6.10;99.90
9951;DHT22;24074;49.254;6.702;2024-02-26T03:06:30;6.20;99.90
9951;DHT22;24074;49.254;6.702;2024-02-26T03:08:56;6.20;99.90
9951;DHT22;24074;49.254;6.702;2024-02-26T03:11:21;6.20;99.90
9951;DHT22;24074;49.254;6.702;2024-02-26T03:13:47;6.20;99.90
9951;DHT22;24074;49.254;6.702;2024-02-26T03:16:13;6.20;99.90
9951;DHT22;24074;49.254;6.702;2024-02-26T03:18:39;6.20;99.90
9951;DHT22;24074;49.254;6.702;2024-02-26T03:21:05;6.20;99.90
9951;DHT22;24074;49.254;6.702;2024-02-26T03:23:31;6.20;99.90
9951;DHT22;24074;49.254;6.702;2024-02-26T03:25:58;6.20;99.90
9951;DHT22;24074;49.254;6.702;2024-02-26T03:28:23;6.20;99.90
9951;DHT22;24074;49.254;6.702;2024-02-26T03:30:49;6.20;99.90
9951;DHT22;24074;49.254;6.702;2024-02-26T03:33:14;6.20;99.90
9951;DHT22;24074;49.254;6.702;2024-02-26T03:35:40;6.20;99.90
9951;DHT22;24074;49.254;6.702;2024-02-26T03:38:05;6.20;99.90
9951;DHT22;24074;49.254;6.702;2024-02-26T03:40:31;6.30;99.90
9951;DHT22;24074;49.254;6.702;2024-02-26T03:42:58;6.20;99.90
9951;DHT22;24074;49.254;6.702;2024-02-26T03:45:23;6.20;99.90
9951;DHT22;24074;49.254;6.702;2024-02-26T03:47:51;6.20;99.90
9951;DHT22;24074;49.254;6.702;2024-02-26T03:50:17;6.20;99.90
9951;DHT22;24074;49.254;6.702;2024-02-26T03:52:42;6.20;99.90
9951;DHT22;24074;49.254;6.702;2024-02-26T03:55:08;6.30;99.90
9951;DHT22;24074;49.254;6.702;2024-02-26T03:57:35;6.30;99.90
9951;DHT22;24074;49.254;6.702;2024-02-26T04:00:01;6.20;99.90
9951;DHT22;24074;49.254;6.702;2024-02-26T04:02:26;6.30;99.90
9951;DHT22;24074;49.254;6.702;2024-02-26T04:04:52;6.30;99.90
9951;DHT22;24074;49.254;6.702;2024-02-26T04:07:18;6.30;99.90
9951;DHT22;24074;49.254;6.702;2024-02-26T04:09:44;6.30;99.90
9951;DHT22;24074;49.254;6.702;2024-02-26T04:12:09;6.30;99.90
9951;DHT22;24074;49.254;6.702;2024-02-26T04:14:35;6.30;99.90
9951;DHT22;24074;49.254;6.702;2024-02-26T04:17:01;6.30;99.90
9951;DHT22;24074;49.254;6.702;2024-02-26T04:19:27;6.30;99.90
9951;DHT22;24074;49.254;6.702;2024-02-26T04:21:52;6.40;99.90
9951;DHT22;24074;49.254;6.702;2024-02-26T04:24:18;6.40;99.90
9951;DHT22;24074;49.254;6.702;2024-02-26T04:26:43;6.40;99.90
9951;DHT22;24074;49.254;6.702;2024-02-26T04:29:09;6.40;99.90
9951;DHT22;24074;49.254;6.702;2024-02-26T04:31:34;6.40;99.90
9951;DHT22;24074;49.254;6.702;2024-02-26T04:34:00;6.40;99.90
9951;DHT22;24074;49.254;6.702;2024-02-26T04:36:25;6.40;99.90
9951;DHT22;24074;49.254;6.702;2024-02-26T04:38:51;6.40;99.90
9951;DHT22;24074;49.254;6.702;2024-02-26T04:41:17;6.40;99.90
9951;DHT22;24074;49.254;6.702;2024-02-26T04:43:42;6.40;99.90
9951;DHT22;24074;49.254;6.702;2024-02-26T04:46:08;6.50;99.90
9951;DHT22;24074;49.254;6.702;2024-02-26T04:48:35;6.60;99.90
9951;DHT22;24074;49.254;6.702;2024-02-26T04:51:01;6.50;99.90
9951;DHT22;24074;49.254;6.702;2024-02-26T04:53:27;6.50;99.90
9951;DHT22;24074;49.254;6.702;2024-02-26T04:55:53;6.50;99.90
9951;DHT22;24074;49.254;6.702;2024-02-26T04:58:18;6.50;99.90
9951;DHT22;24074;49.254;6.702;2024-02-26T05:00:44;6.50;99.90
9951;DHT22;24074;49.254;6.702;2024-02-26T05:03:09;6.50;99.90
9951;DHT22;24074;49.254;6.702;2024-02-26T05:05:40;6.40;99.90
9951;DHT22;24074;49.254;6.702;2024-02-26T05:08:06;6.50;99.90
9951;DHT22;24074;49.254;6.702;2024-02-26T05:10:33;6.50;99.90
9951;DHT22;24074;49.254;6.702;2024-02-26T05:12:58;6.50;99.90
9951;DHT22;24074;49.254;6.702;2024-02-26T05:15:24;6.40;99.90
9951;DHT22;24074;49.254;6.702;2024-02-26T05:17:49;6.50;99.90
9951;DHT22;24074;49.254;6.702;2024-02-26T05:20:15;6.50;99.90
9951;DHT22;24074;49.254;6.702;2024-02-26T05:22:41;6.50;99.90
9951;DHT22;24074;49.254;6.702;2024-02-26T05:25:07;6.50;99.90
9951;DHT22;24074;49.254;6.702;2024-02-26T05:27:33;6.50;99.90
9951;DHT22;24074;49.254;6.702;2024-02-26T05:29:58;6.50;99.90
9951;DHT22;24074;49.254;6.702;2024-02-26T05:32:24;6.50;99.90
9951;DHT22;24074;49.254;6.702;2024-02-26T05:34:49;6.50;99.90
9951;DHT22;24074;49.254;6.702;2024-02-26T05:37:15;6.50;99.90
9951;DHT22;24074;49.254;6.702;2024-02-26T05:39:40;6.50;99.90
9951;DHT22;24074;49.254;6.702;2024-02-26T05:42:06;6.50;99.90
9951;DHT22;24074;49.254;6.702;2024-02-26T05:44:34;6.50;99.90
9951;DHT22;24074;49.254;6.702;2024-02-26T05:46:59;6.50;99.90
9951;DHT22;24074;49.254;6.702;2024-02-26T05:49:25;6.50;99.90
9951;DHT22;24074;49.254;6.702;2024-02-26T05:51:50;6.50;99.90
9951;DHT22;24074;49.254;6.702;2024-02-26T05:54:16;6.50;99.90
9951;DHT22;24074;49.254;6.702;2024-02-26T05:56:41;6.50;99.90
9951;DHT22;24074;49.254;6.702;2024-02-26T05:59:08;6.50;99.90
9951;DHT22;24074;49.254;6.702;2024-02-26T06:01:33;6.50;99.90
9951;DHT22;24074;49.254;6.702;2024-02-26T06:04:01;6.50;99.90
9951;DHT22;24074;49.254;6.702;2024-02-26T06:06:27;6.50;99.90
9951;DHT22;24074;49.254;6.702;2024-02-26T06:08:52;6.50;99.90
9951;DHT22;24074;49.254;6.702;2024-02-26T06:11:18;6.40;99.90
9951;DHT22;24074;49.254;6.702;2024-02-26T06:13:44;6.40;99.90
9951;DHT22;24074;49.254;6.702;2024-02-26T06:16:10;6.50;99.90
9951;DHT22;24074;49.254;6.702;2024-02-26T06:18:35;6.50;99.90
9951;DHT22;24074;49.254;6.702;2024-02-26T06:21:01;6.60;99.90
9951;DHT22;24074;49.254;6.702;2024-02-26T06:23:26;6.50;99.90
9951;DHT22;24074;49.254;6.702;2024-02-26T06:25:52;6.50;99.90
9951;DHT22;24074;49.254;6.702;2024-02-26T06:28:18;6.50;99.90
9951;DHT22;24074;49.254;6.702;2024-02-26T06:30:43;6.50;99.90
9951;DHT22;24074;49.254;6.702;2024-02-26T06:33:09;6.50;99.90
9951;DHT22;24074;49.254;6.702;2024-02-26T06:35:36;6.50;99.90
9951;DHT22;24074;49.254;6.702;2024-02-26T06:38:01;6.50;99.90
9951;DHT22;24074;49.254;6.702;2024-02-26T06:40:27;6.40;99.90
9951;DHT22;24074;49.254;6.702;2024-02-26T06:42:53;6.40;99.90
9951;DHT22;24074;49.254;6.702;2024-02-26T06:45:19;6.40;99.90
9951;DHT22;24074;49.254;6.702;2024-02-26T06:47:45;6.40;99.90
9951;DHT22;24074;49.254;6.702;2024-02-26T06:50:12;6.40;99.90
9951;DHT22;24074;49.254;6.702;2024-02-26T06:52:39;6.40;99.90
9951;DHT22;24074;49.254;6.702;2024-02-26T06:55:04;6.40;99.90
9951;DHT22;24074;49.254;6.702;2024-02-26T06:57:33;6.50;99.90
9951;DHT22;24074;49.254;6.702;2024-02-26T06:59:58;6.50;99.90
9951;DHT22;24074;49.254;6.702;2024-02-26T07:02:24;6.50;99.90
9951;DHT22;24074;49.254;6.702;2024-02-26T07:04:50;6.50;99.90
9951;DHT22;24074;49.254;6.702;2024-02-26T07:07:15;6.40;99.90
9951;DHT22;24074;49.254;6.702;2024-02-26T07:09:43;6.50;99.90
9951;DHT22;24074;49.254;6.702;2024-02-26T07:12:09;6.50;99.90
9951;DHT22;24074;49.254;6.702;2024-02-26T07:14:34;6.50;99.90
9951;DHT22;24074;49.254;6.702;2024-02-26T07:17:00;6.50;99.90
9951;DHT22;24074;49.254;6.702;2024-02-26T07:19:26;6.40;99.90
9951;DHT22;24074;49.254;6.702;2024-02-26T07:21:51;6.50;99.90
9951;DHT22;24074;49.254;6.702;2024-02-26T07:24:17;6.60;99.90
9951;DHT22;24074;49.254;6.702;2024-02-26T07:26:42;6.60;99.90
9951;DHT22;24074;49.254;6.702;2024-02-26T07:29:08;6.60;99.90
9951;DHT22;24074;49.254;6.702;2024-02-26T07:31:34;6.70;99.90
9951;DHT22;24074;49.254;6.702;2024-02-26T07:33:59;6.70;99.90
9951;DHT22;24074;49.254;6.702;2024-02-26T07:36:25;6.80;99.90
9951;DHT22;24074;49.254;6.702;2024-02-26T07:38:51;6.80;99.90
9951;DHT22;24074;49.254;6.702;2024-02-26T07:41:19;6.90;99.90
9951;DHT22;24074;49.254;6.702;2024-02-26T07:43:45;7.00;99.90
9951;DHT22;24074;49.254;6.702;2024-02-26T07:46:13;6.90;99.90
9951;DHT22;24074;49.254;6.702;2024-02-26T07:48:39;7.10;99.90
9951;DHT22;24074;49.254;6.702;2024-02-26T07:51:05;7.30;99.90
9951;DHT22;24074;49.254;6.702;2024-02-26T07:53:30;7.40;99.90
9951;DHT22;24074;49.254;6.702;2024-02-26T07:55:56;7.50;99.90
9951;DHT22;24074;49.254;6.702;2024-02-26T07:58:23;7.60;99.90
9951;DHT22;24074;49.254;6.702;2024-02-26T08:00:49;7.60;99.90
9951;DHT22;24074;49.254;6.702;2024-02-26T08:03:15;7.80;99.90
9951;DHT22;24074;49.254;6.702;2024-02-26T08:05:41;7.90;99.90
9951;DHT22;24074;49.254;6.702;2024-02-26T08:08:08;8.00;99.90
9951;DHT22;24074;49.254;6.702;2024-02-26T08:10:34;7.90;99.90
9951;DHT22;24074;49.254;6.702;2024-02-26T08:13:00;7.80;99.90
9951;DHT22;24074;49.254;6.702;2024-02-26T08:15:33;8.00;99.90
9951;DHT22;24074;49.254;6.702;2024-02-26T08:18:00;8.10;99.90
9951;DHT22;24074;49.254;6.702;2024-02-26T08:20:28;8.30;99.90
9951;DHT22;24074;49.254;6.702;2024-02-26T08:22:53;8.30;99.90
9951;DHT22;24074;49.254;6.702;2024-02-26T08:25:19;8.50;99.90
9951;DHT22;24074;49.254;6.702;2024-02-26T08:27:44;8.50;99.90
9951;DHT22;24074;49.254;6.702;2024-02-26T08:30:10;8.50;99.90
9951;DHT22;24074;49.254;6.702;2024-02-26T08:32:38;8.60;99.90
9951;DHT22;24074;49.254;6.702;2024-02-26T08:35:04;8.50;99.90
9951;DHT22;24074;49.254;6.702;2024-02-26T08:37:30;8.60;99.90
9951;DHT22;24074;49.254;6.702;2024-02-26T08:39:55;8.60;99.90
9951;DHT22;24074;49.254;6.702;2024-02-26T08:42:21;8.40;99.90
9951;DHT22;24074;49.254;6.702;2024-02-26T08:44:49;8.40;99.90
9951;DHT22;24074;49.254;6.702;2024-02-26T08:47:15;8.50;99.90
9951;DHT22;24074;49.254;6.702;2024-02-26T08:49:45;8.60;99.90
9951;DHT22;24074;49.254;6.702;2024-02-26T08:52:11;8.60;99.90
9951;DHT22;24074;49.254;6.702;2024-02-26T08:54:36;8.50;99.90
9951;DHT22;24074;49.254;6.702;2024-02-26T08:57:02;8.50;99.90
9951;DHT22;24074;49.254;6.702;2024-02-26T08:59:28;8.60;99.90
9951;DHT22;24074;49.254;6.702;2024-02-26T09:01:54;8.60;99.90
9951;DHT22;24074;49.254;6.702;2024-02-26T09:04:20;8.70;99.90
9951;DHT22;24074;49.254;6.702;2024-02-26T09:06:45;8.90;99.90
9951;DHT22;24074;49.254;6.702;2024-02-26T09:09:11;9.00;99.90
9951;DHT22;24074;49.254;6.702;2024-02-26T09:11:36;9.20;99.90
9951;DHT22;24074;49.254;6.702;2024-02-26T09:14:05;9.40;99.90
9951;DHT22;24074;49.254;6.702;2024-02-26T09:16:30;9.50;99.90
9951;DHT22;24074;49.254;6.702;2024-02-26T09:18:57;9.60;99.90
9951;DHT22;24074;49.254;6.702;2024-02-26T09:21:22;9.60;99.90
9951;DHT22;24074;49.254;6.702;2024-02-26T09:23:50;10.00;99.90
9951;DHT22;24074;49.254;6.702;2024-02-26T09:26:16;10.10;99.90
9951;DHT22;24074;49.254;6.702;2024-02-26T09:28:42;9.80;99.90
9951;DHT22;24074;49.254;6.702;2024-02-26T09:31:08;9.70;99.90
9951;DHT22;24074;49.254;6.702;2024-02-26T09:33:35;9.60;99.90
9951;DHT22;24074;49.254;6.702;2024-02-26T09:36:02;9.50;99.90
9951;DHT22;24074;49.254;6.702;2024-02-26T09:38:28;9.60;99.90
9951;DHT22;24074;49.254;6.702;2024-02-26T09:40:57;9.50;99.90
9951;DHT22;24074;49.254;6.702;2024-02-26T09:43:23;9.50;99.90
9951;DHT22;24074;49.254;6.702;2024-02-26T09:45:53;9.50;99.90
9951;DHT22;24074;49.254;6.702;2024-02-26T09:48:20;9.60;99.90
9951;DHT22;24074;49.254;6.702;2024-02-26T09:50:46;9.90;99.90
9951;DHT22;24074;49.254;6.702;2024-02-26T09:53:12;9.90;99.90
9951;DHT22;24074;49.254;6.702;2024-02-26T09:55:40;10.40;99.90
9951;DHT22;24074;49.254;6.702;2024-02-26T09:58:06;10.90;99.90
9951;DHT22;24074;49.254;6.702;2024-02-26T10:00:32;11.50;99.90
9951;DHT22;24074;49.254;6.702;2024-02-26T10:03:04;12.10;99.90
9951;DHT22;24074;49.254;6.702;2024-02-26T10:05:31;12.40;99.90
9951;DHT22;24074;49.254;6.702;2024-02-26T10:07:58;12.50;99.90
9951;DHT22;24074;49.254;6.702;2024-02-26T10:10:25;12.60;99.90
9951;DHT22;24074;49.254;6.702;2024-02-26T10:12:53;12.70;99.90
9951;DHT22;24074;49.254;6.702;2024-02-26T10:15:18;13.70;99.90
9951;DHT22;24074;49.254;6.702;2024-02-26T10:17:44;15.10;99.90
9951;DHT22;24074;49.254;6.702;2024-02-26T10:20:13;15.50;99.90
9951;DHT22;24074;49.254;6.702;2024-02-26T10:22:46;15.90;99.90
9951;DHT22;24074;49.254;6.702;2024-02-26T10:25:12;15.50;99.90
9951;DHT22;24074;49.254;6.702;2024-02-26T10:27:39;15.00;99.90
9951;DHT22;24074;49.254;6.702;2024-02-26T10:30:25;15.00;99.90
9951;DHT22;24074;49.254;6.702;2024-02-26T10:32:52;14.70;99.90
9951;DHT22;24074;49.254;6.702;2024-02-26T10:35:18;14.20;99.90
9951;DHT22;24074;49.254;6.702;2024-02-26T10:37:46;14.10;99.90
9951;DHT22;24074;49.254;6.702;2024-02-26T10:40:15;13.80;99.90
9951;DHT22;24074;49.254;6.702;2024-02-26T10:42:42;13.50;99.90
9951;DHT22;24074;49.254;6.702;2024-02-26T10:45:09;13.00;99.90
9951;DHT22;24074;49.254;6.702;2024-02-26T10:47:35;12.50;99.90
9951;DHT22;24074;49.254;6.702;2024-02-26T10:50:06;12.50;99.90
9951;DHT22;24074;49.254;6.702;2024-02-26T10:52:32;12.40;99.90
9951;DHT22;24074;49.254;6.702;2024-02-26T10:55:01;12.30;99.90
9951;DHT22;24074;49.254;6.702;2024-02-26T10:57:36;12.20;99.90
9951;DHT22;24074;49.254;6.702;2024-02-26T11:00:04;12.40;99.90
9951;DHT22;24074;49.254;6.702;2024-02-26T11:02:34;12.60;99.90
9951;DHT22;24074;49.254;6.702;2024-02-26T11:05:05;12.60;99.90
9951;DHT22;24074;49.254;6.702;2024-02-26T11:07:31;12.40;99.90
9951;DHT22;24074;49.254;6.702;2024-02-26T11:09:59;12.50;99.90
9951;DHT22;24074;49.254;6.702;2024-02-26T11:12:27;12.40;99.90
9951;DHT22;24074;49.254;6.702;2024-02-26T11:14:55;12.50;99.90
9951;DHT22;24074;49.254;6.702;2024-02-26T11:17:23;12.70;99.90
9951;DHT22;24074;49.254;6.702;2024-02-26T11:19:50;12.60;99.90
9951;DHT22;24074;49.254;6.702;2024-02-26T11:22:16;12.60;99.90
9951;DHT22;24074;49.254;6.702;2024-02-26T11:24:42;12.50;99.90
9951;DHT22;24074;49.254;6.702;2024-02-26T11:27:10;12.30;99.90
9951;DHT22;24074;49.254;6.702;2024-02-26T11:29:43;12.40;99.90
9951;DHT22;24074;49.254;6.702;2024-02-26T11:32:10;12.50;99.90
9951;DHT22;24074;49.254;6.702;2024-02-26T11:34:36;12.60;99.90
9951;DHT22;24074;49.254;6.702;2024-02-26T11:37:15;12.50;99.90
9951;DHT22;24074;49.254;6.702;2024-02-26T11:39:42;12.30;99.90
9951;DHT22;24074;49.254;6.702;2024-02-26T11:42:13;12.20;99.90
9951;DHT22;24074;49.254;6.702;2024-02-26T11:44:39;12.10;99.90
9951;DHT22;24074;49.254;6.702;2024-02-26T11:47:12;12.10;99.90
9951;DHT22;24074;49.254;6.702;2024-02-26T11:49:40;12.10;99.90
9951;DHT22;24074;49.254;6.702;2024-02-26T11:52:08;12.10;99.90
9951;DHT22;24074;49.254;6.702;2024-02-26T11:57:28;12.20;99.90
9951;DHT22;24074;49.254;6.702;2024-02-26T11:59:55;12.60;99.90
9951;DHT22;24074;49.254;6.702;2024-02-26T12:05:16;12.40;99.90
9951;DHT22;24074;49.254;6.702;2024-02-26T12:07:49;12.20;99.90
9951;DHT22;24074;49.254;6.702;2024-02-26T12:10:30;12.20;99.90
9951;DHT22;24074;49.254;6.702;2024-02-26T12:13:00;12.20;99.90
9951;DHT22;24074;49.254;6.702;2024-02-26T12:15:37;12.40;99.90
9951;DHT22;24074;49.254;6.702;2024-02-26T12:18:05;12.40;99.90
9951;DHT22;24074;49.254;6.702;2024-02-26T12:20:32;12.40;99.90
9951;DHT22;24074;49.254;6.702;2024-02-26T12:22:58;12.10;99.90
9951;DHT22;24074;49.254;6.702;2024-02-26T12:25:25;12.40;99.90
9951;DHT22;24074;49.254;6.702;2024-02-26T12:27:52;12.40;99.90
9951;DHT22;24074;49.254;6.702;2024-02-26T12:30:18;12.90;99.90
9951;DHT22;24074;49.254;6.702;2024-02-26T12:32:48;13.10;99.90
9951;DHT22;24074;49.254;6.702;2024-02-26T12:35:15;13.00;99.90
9951;DHT22;24074;49.254;6.702;2024-02-26T12:37:42;13.00;99.90
9951;DHT22;24074;49.254;6.702;2024-02-26T12:40:11;12.60;99.90
9951;DHT22;24074;49.254;6.702;2024-02-26T12:42:38;12.80;99.90
9951;DHT22;24074;49.254;6.702;2024-02-26T12:45:09;12.80;99.90
9951;DHT22;24074;49.254;6.702;2024-02-26T12:47:36;13.40;99.90
9951;DHT22;24074;49.254;6.702;2024-02-26T12:50:02;14.00;99.90
9951;DHT22;24074;49.254;6.702;2024-02-26T12:52:39;14.50;99.90
9951;DHT22;24074;49.254;6.702;2024-02-26T12:55:06;14.50;99.90
9951;DHT22;24074;49.254;6.702;2024-02-26T12:57:37;14.40;99.90
9951;DHT22;24074;49.254;6.702;2024-02-26T13:00:05;14.40;99.90
9951;DHT22;24074;49.254;6.702;2024-02-26T13:02:31;14.70;99.90
9951;DHT22;24074;49.254;6.702;2024-02-26T13:04:58;14.60;99.90
9951;DHT22;24074;49.254;6.702;2024-02-26T13:07:27;14.80;99.90
9951;DHT22;24074;49.254;6.702;2024-02-26T13:09:52;14.50;99.90
9951;DHT22;24074;49.254;6.702;2024-02-26T13:12:18;14.30;99.90
9951;DHT22;24074;49.254;6.702;2024-02-26T13:14:44;14.20;99.90
9951;DHT22;24074;49.254;6.702;2024-02-26T13:17:10;13.90;99.90
9951;DHT22;24074;49.254;6.702;2024-02-26T13:19:49;13.60;99.90
9951;DHT22;24074;49.254;6.702;2024-02-26T13:22:15;13.30;99.90
9951;DHT22;24074;49.254;6.702;2024-02-26T13:24:42;13.20;99.90
9951;DHT22;24074;49.254;6.702;2024-02-26T13:27:08;13.50;99.90
9951;DHT22;24074;49.254;6.702;2024-02-26T13:29:33;13.50;99.90
9951;DHT22;24074;49.254;6.702;2024-02-26T13:31:59;13.50;99.90
9951;DHT22;24074;49.254;6.702;2024-02-26T13:34:28;13.70;99.90
9951;DHT22;24074;49.254;6.702;2024-02-26T13:36:56;14.10;99.90
9951;DHT22;24074;49.254;6.702;2024-02-26T13:39:26;14.50;99.90
9951;DHT22;24074;49.254;6.702;2024-02-26T13:41:53;14.50;99.90
9951;DHT22;24074;49.254;6.702;2024-02-26T13:44:21;14.50;99.90
9951;DHT22;24074;49.254;6.702;2024-02-26T13:46:47;14.20;99.90
9951;DHT22;24074;49.254;6.702;2024-02-26T13:49:14;14.10;99.90
9951;DHT22;24074;49.254;6.702;2024-02-26T13:51:40;13.80;99.90
9951;DHT22;24074;49.254;6.702;2024-02-26T13:54:06;13.60;99.90
9951;DHT22;24074;49.254;6.702;2024-02-26T13:56:33;13.50;99.90
9951;DHT22;24074;49.254;6.702;2024-02-26T13:58:58;13.40;99.90
9951;DHT22;24074;49.254;6.702;2024-02-26T14:01:25;13.30;99.90
9951;DHT22;24074;49.254;6.702;2024-02-26T14:03:51;13.30;99.90
9951;DHT22;24074;49.254;6.702;2024-02-26T14:06:16;13.20;99.90
9951;DHT22;24074;49.254;6.702;2024-02-26T14:08:42;13.00;99.90
9951;DHT22;24074;49.254;6.702;2024-02-26T14:11:08;12.80;99.90
9951;DHT22;24074;49.254;6.702;2024-02-26T14:13:33;12.60;99.90
9951;DHT22;24074;49.254;6.702;2024-02-26T14:15:59;12.50;99.90
9951;DHT22;24074;49.254;6.702;2024-02-26T14:18:26;12.50;99.90
9951;DHT22;24074;49.254;6.702;2024-02-26T14:20:52;12.60;99.90
9951;DHT22;24074;49.254;6.702;2024-02-26T14:23:18;12.50;99.90
9951;DHT22;24074;49.254;6.702;2024-02-26T14:25:43;12.40;99.90
9951;DHT22;24074;49.254;6.702;2024-02-26T14:28:09;12.50;99.90
9951;DHT22;24074;49.254;6.702;2024-02-26T14:30:35;12.50;99.90
9951;DHT22;24074;49.254;6.702;2024-02-26T14:33:00;12.60;99.90
9951;DHT22;24074;49.254;6.702;2024-02-26T14:35:26;12.60;99.90
9951;DHT22;24074;49.254;6.702;2024-02-26T14:37:52;12.70;99.90
9951;DHT22;24074;49.254;6.702;2024-02-26T14:40:18;12.70;99.90
9951;DHT22;24074;49.254;6.702;2024-02-26T14:42:44;12.80;99.90
9951;DHT22;24074;49.254;6.702;2024-02-26T14:45:10;12.60;99.90
9951;DHT22;24074;49.254;6.702;2024-02-26T14:47:38;12.60;99.90
9951;DHT22;24074;49.254;6.702;2024-02-26T14:50:04;12.40;99.90
9951;DHT22;24074;49.254;6.702;2024-02-26T14:52:30;12.40;99.90
9951;DHT22;24074;49.254;6.702;2024-02-26T14:54:56;12.30;99.90
9951;DHT22;24074;49.254;6.702;2024-02-26T14:57:24;12.20;99.90
9951;DHT22;24074;49.254;6.702;2024-02-26T14:59:50;12.00;99.90
9951;DHT22;24074;49.254;6.702;2024-02-26T15:02:16;11.70;99.90
9951;DHT22;24074;49.254;6.702;2024-02-26T15:04:44;11.50;99.90
9951;DHT22;24074;49.254;6.702;2024-02-26T15:07:10;11.60;99.90
9951;DHT22;24074;49.254;6.702;2024-02-26T15:09:37;11.80;99.90
9951;DHT22;24074;49.254;6.702;2024-02-26T15:12:03;11.90;99.90
9951;DHT22;24074;49.254;6.702;2024-02-26T15:14:32;12.00;99.90
9951;DHT22;24074;49.254;6.702;2024-02-26T15:16:57;12.10;99.90
9951;DHT22;24074;49.254;6.702;2024-02-26T15:19:23;12.20;99.90
9951;DHT22;24074;49.254;6.702;2024-02-26T15:21:49;12.20;99.90
9951;DHT22;24074;49.254;6.702;2024-02-26T15:24:15;12.20;99.90
9951;DHT22;24074;49.254;6.702;2024-02-26T15:26:44;12.00;99.90
9951;DHT22;24074;49.254;6.702;2024-02-26T15:29:10;11.90;99.90
9951;DHT22;24074;49.254;6.702;2024-02-26T15:31:36;11.80;99.90
9951;DHT22;24074;49.254;6.702;2024-02-26T15:34:03;11.70;99.90
9951;DHT22;24074;49.254;6.702;2024-02-26T15:36:28;11.60;99.90
9951;DHT22;24074;49.254;6.702;2024-02-26T15:38:54;11.50;99.90
9951;DHT22;24074;49.254;6.702;2024-02-26T15:41:20;11.50;99.90
9951;DHT22;24074;49.254;6.702;2024-02-26T15:43:45;11.40;99.90
9951;DHT22;24074;49.254;6.702;2024-02-26T15:46:11;11.40;99.90
9951;DHT22;24074;49.254;6.702;2024-02-26T15:48:37;11.30;99.90
9951;DHT22;24074;49.254;6.702;2024-02-26T15:51:03;11.20;99.90
9951;DHT22;24074;49.254;6.702;2024-02-26T15:53:29;11.10;99.90
9951;DHT22;24074;49.254;6.702;2024-02-26T15:55:54;11.10;99.90